Time,TemperatureF,DewpointF,PressureIn,WindDirection,WindDirectionDegrees,WindSpeedMPH,WindSpeedGustMPH,Humidity,HourlyPrecipIn,Conditions,Clouds,dailyrainin,SoftwareType,DateUTC
2013-10-19 00:24:00,39.0,37.0,29.90,North,0,0.0,0.0,94,0.00,,,0.12,,2013-10-19 04:24:00,
2013-10-19 00:44:00,38.0,36.0,29.91,North,0,0.0,0.0,94,0.00,,,0.12,,2013-10-19 04:44:00,
2013-10-19 00:54:00,38.0,37.0,29.91,North,0,0.0,0.0,95,0.00,,,0.12,,2013-10-19 04:54:00,
2013-10-19 01:22:00,37.0,35.0,29.91,North,0,0.0,0.0,94,0.00,,,0.12,,2013-10-19 05:22:00,
2013-10-19 01:42:00,37.0,36.0,29.91,North,0,0.0,0.0,95,0.00,,,0.12,,2013-10-19 05:42:00,
2013-10-19 01:52:00,37.0,36.0,29.91,North,0,0.0,0.0,95,0.00,,,0.11,,2013-10-19 05:52:00,
2013-10-19 02:22:00,37.0,36.0,29.91,North,0,0.0,0.0,96,0.00,,,0.06,,2013-10-19 06:22:00,
2013-10-19 02:42:00,36.0,35.0,29.92,North,0,0.0,1.0,97,0.00,,,0.05,,2013-10-19 06:42:00,
2013-10-19 02:52:00,36.0,35.0,29.92,North,0,0.0,0.0,96,0.00,,,0.05,,2013-10-19 06:52:00,
2013-10-19 03:22:00,35.0,34.0,29.92,North,0,0.0,0.0,96,0.00,,,0.02,,2013-10-19 07:22:00,
2013-10-19 03:52:00,35.0,34.0,29.92,North,0,0.0,0.0,96,0.00,,,0.01,,2013-10-19 07:52:00,
2013-10-19 04:22:00,34.0,33.0,29.91,North,0,0.0,0.0,96,0.00,,,0.01,,2013-10-19 08:22:00,
2013-10-19 04:42:00,34.0,33.0,29.92,North,0,0.0,0.0,96,0.00,,,0.01,,2013-10-19 08:42:00,
2013-10-19 04:52:00,34.0,33.0,29.92,North,0,0.0,0.0,96,0.00,,,0.01,,2013-10-19 08:52:00,
2013-10-19 05:21:00,34.0,33.0,29.93,North,0,0.0,0.0,97,0.00,,,0.01,,2013-10-19 09:21:00,
2013-10-19 05:54:00,33.0,32.0,29.94,North,0,0.0,0.0,97,0.00,,,0.01,,2013-10-19 09:54:00,
2013-10-19 06:23:00,33.0,32.0,29.94,North,0,0.0,0.0,97,0.00,,,0.01,,2013-10-19 10:23:00,
2013-10-19 06:53:00,33.0,32.0,29.95,North,0,0.0,0.0,97,0.00,,,0.01,,2013-10-19 10:53:00,
2013-10-19 07:22:00,32.0,32.0,29.94,North,0,0.0,0.0,98,0.00,,,0.00,,2013-10-19 11:22:00,
2013-10-19 07:52:00,32.0,32.0,29.94,North,0,0.0,0.0,98,0.00,,,0.00,,2013-10-19 11:52:00,
2013-10-19 08:12:00,32.0,32.0,29.95,North,0,0.0,0.0,98,0.00,,,0.00,,2013-10-19 12:12:00,
2013-10-19 08:22:00,32.0,32.0,29.95,North,0,0.0,0.0,98,0.00,,,0.00,,2013-10-19 12:22:00,
2013-10-19 08:52:00,33.0,33.0,29.96,North,0,0.0,0.0,99,0.00,,,0.00,,2013-10-19 12:52:00,
2013-10-19 09:22:00,38.0,38.0,29.96,North,0,0.0,1.0,100,0.00,,,0.00,,2013-10-19 13:22:00,
2013-10-19 09:52:00,40.0,40.0,29.95,North,0,0.0,1.0,100,0.00,,,0.00,,2013-10-19 13:52:00,
2013-10-19 10:22:00,43.0,43.0,29.96,North,0,0.0,1.0,99,0.00,,,0.00,,2013-10-19 14:22:00,
2013-10-19 10:52:00,47.0,43.0,29.94,North,0,0.0,3.0,86,0.00,,,0.00,,2013-10-19 14:52:00,
2013-10-19 11:22:00,51.0,44.0,29.93,East,101,3.0,5.0,77,0.00,,,0.00,,2013-10-19 15:22:00,
2013-10-19 11:55:00,54.0,44.0,29.93,SSW,210,2.0,5.0,69,0.00,,,0.00,,2013-10-19 15:55:00,
2013-10-19 12:24:00,57.0,44.0,29.91,SSE,147,1.0,5.0,62,0.00,,,0.00,,2013-10-19 16:24:00,
2013-10-19 12:53:00,59.0,44.0,29.91,SSE,156,1.0,15.0,57,0.00,,,0.00,,2013-10-19 16:53:00,
2013-10-19 13:22:00,60.0,44.0,29.89,SSW,196,2.0,10.0,56,0.00,,,0.00,,2013-10-19 17:22:00,
2013-10-19 13:52:00,61.0,45.0,29.86,SSW,206,1.0,12.0,55,0.00,,,0.00,,2013-10-19 17:52:00,
2013-10-19 14:22:00,62.0,47.0,29.85,SE,136,1.0,4.0,58,0.00,,,0.00,,2013-10-19 18:22:00,
2013-10-19 14:52:00,62.0,46.0,29.85,North,0,0.0,6.0,56,0.00,,,0.00,,2013-10-19 18:52:00,
2013-10-19 15:22:00,62.0,47.0,29.85,South,171,2.0,9.0,59,0.00,,,0.00,,2013-10-19 19:22:00,
2013-10-19 15:52:00,61.0,44.0,29.83,North,0,0.0,2.0,54,0.00,,,0.00,,2013-10-19 19:52:00,
2013-10-19 16:52:00,58.0,45.0,29.82,SE,140,1.0,3.0,63,0.00,,,0.00,,2013-10-19 20:52:00,
2013-10-19 17:22:00,58.0,44.0,29.82,North,0,0.0,6.0,59,0.00,,,0.00,,2013-10-19 21:22:00,
2013-10-19 17:54:00,57.0,46.0,29.80,North,0,0.0,12.0,66,0.00,,,0.00,,2013-10-19 21:54:00,
2013-10-19 18:24:00,56.0,46.0,29.78,North,0,0.0,8.0,68,0.00,,,0.00,,2013-10-19 22:24:00,
2013-10-19 18:53:00,55.0,45.0,29.78,North,0,0.0,6.0,69,0.00,,,0.00,,2013-10-19 22:53:00,
2013-10-19 19:22:00,54.0,46.0,29.78,North,0,0.0,3.0,75,0.00,,,0.00,,2013-10-19 23:22:00,
2013-10-19 19:52:00,54.0,46.0,29.78,SE,143,1.0,4.0,74,0.00,,,0.00,,2013-10-19 23:52:00,
2013-10-19 20:22:00,53.0,46.0,29.77,SSW,208,1.0,5.0,76,0.00,,,0.00,,2013-10-20 00:22:00,
2013-10-19 20:52:00,53.0,46.0,29.75,North,0,0.0,2.0,76,0.00,,,0.00,,2013-10-20 00:52:00,
2013-10-19 21:22:00,52.0,44.0,29.75,SE,130,1.0,8.0,73,0.00,,,0.00,,2013-10-20 01:22:00,
2013-10-19 21:52:00,53.0,46.0,29.75,North,0,0.0,4.0,77,0.00,,,0.00,,2013-10-20 01:52:00,
2013-10-19 22:22:00,53.0,47.0,29.74,North,0,0.0,2.0,80,0.00,,,0.00,,2013-10-20 02:22:00,
2013-10-19 22:52:00,52.0,47.0,29.74,North,0,0.0,0.0,82,0.00,,,0.00,,2013-10-20 02:52:00,
2013-10-19 23:22:00,51.0,47.0,29.73,North,0,0.0,4.0,87,0.00,,,0.00,,2013-10-20 03:22:00,
2013-10-19 23:54:00,51.0,47.0,29.72,North,0,0.0,3.0,87,0.00,,,0.00,,2013-10-20 03:54:00,